sensor_id;sensor_type;location;lat;lon;timestamp;temperature;humidity
7958;DHT22;4024;52.172;5.378;2024-02-21T00:00:38;11.90;99.90
7958;DHT22;4024;52.172;5.378;2024-02-21T00:03:04;11.90;99.90
7958;DHT22;4024;52.172;5.378;2024-02-21T00:05:30;11.90;99.90
7958;DHT22;4024;52.172;5.378;2024-02-21T00:07:58;11.90;99.90
7958;DHT22;4024;52.172;5.378;2024-02-21T00:10:24;11.90;99.90
7958;DHT22;4024;52.172;5.378;2024-02-21T00:12:50;11.90;99.90
7958;DHT22;4024;52.172;5.378;2024-02-21T00:15:16;11.90;99.90
7958;DHT22;4024;52.172;5.378;2024-02-21T00:17:43;11.90;99.90
7958;DHT22;4024;52.172;5.378;2024-02-21T00:20:09;11.90;99.90
7958;DHT22;4024;52.172;5.378;2024-02-21T00:22:35;11.90;99.90
7958;DHT22;4024;52.172;5.378;2024-02-21T00:25:01;11.90;99.90
7958;DHT22;4024;52.172;5.378;2024-02-21T00:27:27;11.90;99.90
7958;DHT22;4024;52.172;5.378;2024-02-21T00:29:53;11.90;99.90
7958;DHT22;4024;52.172;5.378;2024-02-21T00:32:19;11.90;99.90
7958;DHT22;4024;52.172;5.378;2024-02-21T00:34:44;11.70;99.90
7958;DHT22;4024;52.172;5.378;2024-02-21T00:37:10;11.90;99.90
7958;DHT22;4024;52.172;5.378;2024-02-21T00:39:35;11.90;99.90
7958;DHT22;4024;52.172;5.378;2024-02-21T00:42:02;11.90;99.90
7958;DHT22;4024;52.172;5.378;2024-02-21T00:44:28;11.90;99.90
7958;DHT22;4024;52.172;5.378;2024-02-21T00:46:53;12.00;99.90
7958;DHT22;4024;52.172;5.378;2024-02-21T00:49:19;11.90;99.90
7958;DHT22;4024;52.172;5.378;2024-02-21T00:51:45;11.90;99.90
7958;DHT22;4024;52.172;5.378;2024-02-21T00:54:10;11.90;99.90
7958;DHT22;4024;52.172;5.378;2024-02-21T00:56:36;11.90;99.90
7958;DHT22;4024;52.172;5.378;2024-02-21T00:59:01;11.90;99.90
7958;DHT22;4024;52.172;5.378;2024-02-21T01:01:27;12.00;99.90
7958;DHT22;4024;52.172;5.378;2024-02-21T01:03:53;11.90;99.90
7958;DHT22;4024;52.172;5.378;2024-02-21T01:06:20;12.00;99.90
7958;DHT22;4024;52.172;5.378;2024-02-21T01:08:48;12.00;99.90
7958;DHT22;4024;52.172;5.378;2024-02-21T01:11:15;12.00;99.90
7958;DHT22;4024;52.172;5.378;2024-02-21T01:13:40;12.10;99.90
7958;DHT22;4024;52.172;5.378;2024-02-21T01:16:06;12.10;99.90
7958;DHT22;4024;52.172;5.378;2024-02-21T01:18:38;12.00;99.90
7958;DHT22;4024;52.172;5.378;2024-02-21T01:21:07;12.00;99.90
7958;DHT22;4024;52.172;5.378;2024-02-21T01:23:42;12.10;99.90
7958;DHT22;4024;52.172;5.378;2024-02-21T01:26:08;12.00;99.90
7958;DHT22;4024;52.172;5.378;2024-02-21T01:28:34;12.10;99.90
7958;DHT22;4024;52.172;5.378;2024-02-21T01:31:00;12.10;99.90
7958;DHT22;4024;52.172;5.378;2024-02-21T01:33:26;12.10;99.90
7958;DHT22;4024;52.172;5.378;2024-02-21T01:35:52;12.10;99.90
7958;DHT22;4024;52.172;5.378;2024-02-21T01:38:18;12.10;99.90
7958;DHT22;4024;52.172;5.378;2024-02-21T01:40:43;12.10;99.90
7958;DHT22;4024;52.172;5.378;2024-02-21T01:43:20;12.00;99.90
7958;DHT22;4024;52.172;5.378;2024-02-21T01:45:48;12.00;99.90
7958;DHT22;4024;52.172;5.378;2024-02-21T01:48:15;12.10;99.90
7958;DHT22;4024;52.172;5.378;2024-02-21T01:50:41;12.10;99.90
7958;DHT22;4024;52.172;5.378;2024-02-21T01:53:07;12.00;99.90
7958;DHT22;4024;52.172;5.378;2024-02-21T01:55:33;12.10;99.90
7958;DHT22;4024;52.172;5.378;2024-02-21T01:57:59;12.00;99.90
7958;DHT22;4024;52.172;5.378;2024-02-21T02:00:25;12.10;99.90
7958;DHT22;4024;52.172;5.378;2024-02-21T02:02:51;12.10;99.90
7958;DHT22;4024;52.172;5.378;2024-02-21T02:05:18;12.10;99.90
7958;DHT22;4024;52.172;5.378;2024-02-21T02:07:46;12.10;99.90
7958;DHT22;4024;52.172;5.378;2024-02-21T02:10:12;12.10;99.90
7958;DHT22;4024;52.172;5.378;2024-02-21T02:12:38;12.10;99.90
7958;DHT22;4024;52.172;5.378;2024-02-21T02:15:04;12.10;99.90
7958;DHT22;4024;52.172;5.378;2024-02-21T02:17:30;12.10;99.90
7958;DHT22;4024;52.172;5.378;2024-02-21T02:19:56;12.20;99.90
7958;DHT22;4024;52.172;5.378;2024-02-21T02:22:32;11.90;99.90
7958;DHT22;4024;52.172;5.378;2024-02-21T02:24:59;12.00;99.90
7958;DHT22;4024;52.172;5.378;2024-02-21T02:27:25;12.00;99.90
7958;DHT22;4024;52.172;5.378;2024-02-21T02:29:50;12.10;99.90
7958;DHT22;4024;52.172;5.378;2024-02-21T02:32:17;12.10;99.90
7958;DHT22;4024;52.172;5.378;2024-02-21T02:34:43;12.10;99.90
7958;DHT22;4024;52.172;5.378;2024-02-21T02:37:09;12.10;99.90
7958;DHT22;4024;52.172;5.378;2024-02-21T02:39:34;12.10;99.90
7958;DHT22;4024;52.172;5.378;2024-02-21T02:42:01;12.10;99.90
7958;DHT22;4024;52.172;5.378;2024-02-21T02:44:26;12.10;99.90
7958;DHT22;4024;52.172;5.378;2024-02-21T02:46:52;12.10;99.90
7958;DHT22;4024;52.172;5.378;2024-02-21T02:49:18;12.20;99.90
7958;DHT22;4024;52.172;5.378;2024-02-21T02:51:43;12.10;99.90
7958;DHT22;4024;52.172;5.378;2024-02-21T02:54:09;12.10;99.90
7958;DHT22;4024;52.172;5.378;2024-02-21T02:56:35;12.10;99.90
7958;DHT22;4024;52.172;5.378;2024-02-21T02:59:01;12.10;99.90
7958;DHT22;4024;52.172;5.378;2024-02-21T03:01:26;12.20;99.90
7958;DHT22;4024;52.172;5.378;2024-02-21T03:03:52;12.10;99.90
7958;DHT22;4024;52.172;5.378;2024-02-21T03:06:19;12.10;99.90
7958;DHT22;4024;52.172;5.378;2024-02-21T03:08:44;12.10;99.90
7958;DHT22;4024;52.172;5.378;2024-02-21T03:11:10;12.10;99.90
7958;DHT22;4024;52.172;5.378;2024-02-21T03:13:36;12.10;99.90
7958;DHT22;4024;52.172;5.378;2024-02-21T03:16:02;12.10;99.90
7958;DHT22;4024;52.172;5.378;2024-02-21T03:18:27;12.10;99.90
7958;DHT22;4024;52.172;5.378;2024-02-21T03:20:53;12.10;99.90
7958;DHT22;4024;52.172;5.378;2024-02-21T03:23:18;12.20;99.90
7958;DHT22;4024;52.172;5.378;2024-02-21T03:25:44;12.10;99.90
7958;DHT22;4024;52.172;5.378;2024-02-21T03:28:10;12.10;99.90
7958;DHT22;4024;52.172;5.378;2024-02-21T03:30:35;12.10;99.90
7958;DHT22;4024;52.172;5.378;2024-02-21T03:33:01;12.10;99.90
7958;DHT22;4024;52.172;5.378;2024-02-21T03:35:26;12.00;99.90
7958;DHT22;4024;52.172;5.378;2024-02-21T03:37:52;12.00;99.90
7958;DHT22;4024;52.172;5.378;2024-02-21T03:40:18;12.10;99.90
7958;DHT22;4024;52.172;5.378;2024-02-21T03:42:44;12.20;99.90
7958;DHT22;4024;52.172;5.378;2024-02-21T03:45:09;12.10;99.90
7958;DHT22;4024;52.172;5.378;2024-02-21T03:47:35;12.10;99.90
7958;DHT22;4024;52.172;5.378;2024-02-21T03:50:00;12.00;99.90
7958;DHT22;4024;52.172;5.378;2024-02-21T03:52:26;12.00;99.90
7958;DHT22;4024;52.172;5.378;2024-02-21T03:54:52;12.10;99.90
7958;DHT22;4024;52.172;5.378;2024-02-21T03:57:17;12.10;99.90
7958;DHT22;4024;52.172;5.378;2024-02-21T03:59:43;12.10;99.90
7958;DHT22;4024;52.172;5.378;2024-02-21T04:02:08;12.00;99.90
7958;DHT22;4024;52.172;5.378;2024-02-21T04:04:37;12.10;99.90
7958;DHT22;4024;52.172;5.378;2024-02-21T04:07:03;12.00;99.90
7958;DHT22;4024;52.172;5.378;2024-02-21T04:09:35;12.00;99.90
7958;DHT22;4024;52.172;5.378;2024-02-21T04:12:01;12.10;99.90
7958;DHT22;4024;52.172;5.378;2024-02-21T04:14:26;12.00;99.90
7958;DHT22;4024;52.172;5.378;2024-02-21T04:16:52;12.00;99.90
7958;DHT22;4024;52.172;5.378;2024-02-21T04:19:17;12.10;99.90
7958;DHT22;4024;52.172;5.378;2024-02-21T04:21:43;12.00;99.90
7958;DHT22;4024;52.172;5.378;2024-02-21T04:24:08;12.00;99.90
7958;DHT22;4024;52.172;5.378;2024-02-21T04:26:34;12.00;99.90
7958;DHT22;4024;52.172;5.378;2024-02-21T04:29:00;12.00;99.90
7958;DHT22;4024;52.172;5.378;2024-02-21T04:31:26;12.00;99.90
7958;DHT22;4024;52.172;5.378;2024-02-21T04:33:51;12.00;99.90
7958;DHT22;4024;52.172;5.378;2024-02-21T04:36:17;12.10;99.90
7958;DHT22;4024;52.172;5.378;2024-02-21T04:38:43;11.90;99.90
7958;DHT22;4024;52.172;5.378;2024-02-21T04:41:08;12.00;99.90
7958;DHT22;4024;52.172;5.378;2024-02-21T04:43:34;11.90;99.90
7958;DHT22;4024;52.172;5.378;2024-02-21T04:46:00;12.10;99.90
7958;DHT22;4024;52.172;5.378;2024-02-21T04:48:26;12.00;99.90
7958;DHT22;4024;52.172;5.378;2024-02-21T04:50:51;11.90;99.90
7958;DHT22;4024;52.172;5.378;2024-02-21T04:53:17;12.00;99.90
7958;DHT22;4024;52.172;5.378;2024-02-21T04:55:43;12.10;99.90
7958;DHT22;4024;52.172;5.378;2024-02-21T04:58:08;12.00;99.90
7958;DHT22;4024;52.172;5.378;2024-02-21T05:00:34;11.90;99.90
7958;DHT22;4024;52.172;5.378;2024-02-21T05:03:00;11.90;99.90
7958;DHT22;4024;52.172;5.378;2024-02-21T05:05:25;11.90;99.90
7958;DHT22;4024;52.172;5.378;2024-02-21T05:07:51;11.90;99.90
7958;DHT22;4024;52.172;5.378;2024-02-21T05:10:16;11.90;99.90
7958;DHT22;4024;52.172;5.378;2024-02-21T05:12:43;11.90;99.90
7958;DHT22;4024;52.172;5.378;2024-02-21T05:15:09;11.90;99.90
7958;DHT22;4024;52.172;5.378;2024-02-21T05:17:35;11.90;99.90
7958;DHT22;4024;52.172;5.378;2024-02-21T05:20:01;11.90;99.90
7958;DHT22;4024;52.172;5.378;2024-02-21T05:22:26;11.90;99.90
7958;DHT22;4024;52.172;5.378;2024-02-21T05:24:52;11.90;99.90
7958;DHT22;4024;52.172;5.378;2024-02-21T05:27:18;12.00;99.90
7958;DHT22;4024;52.172;5.378;2024-02-21T05:29:43;11.90;99.90
7958;DHT22;4024;52.172;5.378;2024-02-21T05:32:09;11.90;99.90
7958;DHT22;4024;52.172;5.378;2024-02-21T05:34:35;11.90;99.90
7958;DHT22;4024;52.172;5.378;2024-02-21T05:37:00;11.90;99.90
7958;DHT22;4024;52.172;5.378;2024-02-21T05:39:26;11.90;99.90
7958;DHT22;4024;52.172;5.378;2024-02-21T05:41:52;11.90;99.90
7958;DHT22;4024;52.172;5.378;2024-02-21T05:44:19;11.90;99.90
7958;DHT22;4024;52.172;5.378;2024-02-21T05:46:44;11.90;99.90
7958;DHT22;4024;52.172;5.378;2024-02-21T05:49:10;11.90;99.90
7958;DHT22;4024;52.172;5.378;2024-02-21T05:51:36;11.80;99.90
7958;DHT22;4024;52.172;5.378;2024-02-21T05:54:02;11.80;99.90
7958;DHT22;4024;52.172;5.378;2024-02-21T05:56:27;11.80;99.90
7958;DHT22;4024;52.172;5.378;2024-02-21T05:58:54;11.90;99.90
7958;DHT22;4024;52.172;5.378;2024-02-21T06:01:19;11.80;99.90
7958;DHT22;4024;52.172;5.378;2024-02-21T06:03:47;11.80;99.90
7958;DHT22;4024;52.172;5.378;2024-02-21T06:06:12;11.80;99.90
7958;DHT22;4024;52.172;5.378;2024-02-21T06:08:40;11.80;99.90
7958;DHT22;4024;52.172;5.378;2024-02-21T06:11:05;11.80;99.90
7958;DHT22;4024;52.172;5.378;2024-02-21T06:13:31;11.90;99.90
7958;DHT22;4024;52.172;5.378;2024-02-21T06:15:57;11.80;99.90
7958;DHT22;4024;52.172;5.378;2024-02-21T06:18:22;11.80;99.90
7958;DHT22;4024;52.172;5.378;2024-02-21T06:20:48;11.90;99.90
7958;DHT22;4024;52.172;5.378;2024-02-21T06:23:15;11.80;99.90
7958;DHT22;4024;52.172;5.378;2024-02-21T06:25:42;11.90;99.90
7958;DHT22;4024;52.172;5.378;2024-02-21T06:28:08;11.80;99.90
7958;DHT22;4024;52.172;5.378;2024-02-21T06:30:33;11.80;99.90
7958;DHT22;4024;52.172;5.378;2024-02-21T06:32:59;11.80;99.90
7958;DHT22;4024;52.172;5.378;2024-02-21T06:35:25;11.80;99.90
7958;DHT22;4024;52.172;5.378;2024-02-21T06:37:51;11.80;99.90
7958;DHT22;4024;52.172;5.378;2024-02-21T06:40:20;11.80;99.90
7958;DHT22;4024;52.172;5.378;2024-02-21T06:42:46;11.70;99.90
7958;DHT22;4024;52.172;5.378;2024-02-21T06:45:12;11.80;99.90
7958;DHT22;4024;52.172;5.378;2024-02-21T06:47:37;11.90;99.90
7958;DHT22;4024;52.172;5.378;2024-02-21T06:50:03;11.80;99.90
7958;DHT22;4024;52.172;5.378;2024-02-21T06:52:29;11.80;99.90
7958;DHT22;4024;52.172;5.378;2024-02-21T06:54:54;11.80;99.90
7958;DHT22;4024;52.172;5.378;2024-02-21T06:57:20;11.80;99.90
7958;DHT22;4024;52.172;5.378;2024-02-21T06:59:45;11.80;99.90
7958;DHT22;4024;52.172;5.378;2024-02-21T07:02:11;11.80;99.90
7958;DHT22;4024;52.172;5.378;2024-02-21T07:04:37;11.90;99.90
7958;DHT22;4024;52.172;5.378;2024-02-21T07:07:02;11.80;99.90
7958;DHT22;4024;52.172;5.378;2024-02-21T07:09:28;11.80;99.90
7958;DHT22;4024;52.172;5.378;2024-02-21T07:12:00;11.70;99.90
7958;DHT22;4024;52.172;5.378;2024-02-21T07:14:25;11.70;99.90
7958;DHT22;4024;52.172;5.378;2024-02-21T07:16:51;11.80;99.90
7958;DHT22;4024;52.172;5.378;2024-02-21T07:19:17;11.80;99.90
7958;DHT22;4024;52.172;5.378;2024-02-21T07:21:42;11.70;99.90
7958;DHT22;4024;52.172;5.378;2024-02-21T07:24:08;11.90;99.90
7958;DHT22;4024;52.172;5.378;2024-02-21T07:26:34;11.70;99.90
7958;DHT22;4024;52.172;5.378;2024-02-21T07:29:00;11.70;99.90
7958;DHT22;4024;52.172;5.378;2024-02-21T07:31:25;11.70;99.90
7958;DHT22;4024;52.172;5.378;2024-02-21T07:33:51;11.80;99.90
7958;DHT22;4024;52.172;5.378;2024-02-21T07:36:29;11.70;99.90
7958;DHT22;4024;52.172;5.378;2024-02-21T07:38:58;11.70;99.90
7958;DHT22;4024;52.172;5.378;2024-02-21T07:41:24;11.70;99.90
7958;DHT22;4024;52.172;5.378;2024-02-21T07:43:50;11.70;99.90
7958;DHT22;4024;52.172;5.378;2024-02-21T07:46:15;11.70;99.90
7958;DHT22;4024;52.172;5.378;2024-02-21T07:48:42;11.70;99.90
7958;DHT22;4024;52.172;5.378;2024-02-21T07:51:08;11.70;99.90
7958;DHT22;4024;52.172;5.378;2024-02-21T07:53:33;11.70;99.90
7958;DHT22;4024;52.172;5.378;2024-02-21T07:55:59;11.70;99.90
7958;DHT22;4024;52.172;5.378;2024-02-21T07:58:25;11.70;99.90
7958;DHT22;4024;52.172;5.378;2024-02-21T08:00:51;11.70;99.90
7958;DHT22;4024;52.172;5.378;2024-02-21T08:03:16;11.70;99.90
7958;DHT22;4024;52.172;5.378;2024-02-21T08:05:43;11.80;99.90
7958;DHT22;4024;52.172;5.378;2024-02-21T08:08:09;11.70;99.90
7958;DHT22;4024;52.172;5.378;2024-02-21T08:10:34;11.70;99.90
7958;DHT22;4024;52.172;5.378;2024-02-21T08:13:00;11.70;99.90
7958;DHT22;4024;52.172;5.378;2024-02-21T08:15:25;11.70;99.90
7958;DHT22;4024;52.172;5.378;2024-02-21T08:17:55;11.80;99.90
7958;DHT22;4024;52.172;5.378;2024-02-21T08:20:24;11.70;99.90
7958;DHT22;4024;52.172;5.378;2024-02-21T08:22:49;11.70;99.90
7958;DHT22;4024;52.172;5.378;2024-02-21T08:25:15;11.80;99.90
7958;DHT22;4024;52.172;5.378;2024-02-21T08:27:41;11.70;99.90
7958;DHT22;4024;52.172;5.378;2024-02-21T08:30:06;11.80;99.90
7958;DHT22;4024;52.172;5.378;2024-02-21T08:32:33;11.70;99.90
7958;DHT22;4024;52.172;5.378;2024-02-21T08:35:01;11.90;99.90
7958;DHT22;4024;52.172;5.378;2024-02-21T08:37:29;11.70;99.90
7958;DHT22;4024;52.172;5.378;2024-02-21T08:39:55;11.80;99.90
7958;DHT22;4024;52.172;5.378;2024-02-21T08:42:21;11.90;99.90
7958;DHT22;4024;52.172;5.378;2024-02-21T08:44:47;11.90;99.90
7958;DHT22;4024;52.172;5.378;2024-02-21T08:47:12;11.90;99.90
7958;DHT22;4024;52.172;5.378;2024-02-21T08:49:38;11.90;99.90
7958;DHT22;4024;52.172;5.378;2024-02-21T08:52:04;11.90;99.90
7958;DHT22;4024;52.172;5.378;2024-02-21T08:54:31;11.90;99.90
7958;DHT22;4024;52.172;5.378;2024-02-21T08:56:57;11.90;99.90
7958;DHT22;4024;52.172;5.378;2024-02-21T08:59:23;11.90;99.90
7958;DHT22;4024;52.172;5.378;2024-02-21T09:01:50;11.90;99.90
7958;DHT22;4024;52.172;5.378;2024-02-21T09:04:17;11.90;99.90
7958;DHT22;4024;52.172;5.378;2024-02-21T09:06:43;12.00;99.90
7958;DHT22;4024;52.172;5.378;2024-02-21T09:09:10;12.00;99.90
7958;DHT22;4024;52.172;5.378;2024-02-21T09:11:36;12.20;99.90
7958;DHT22;4024;52.172;5.378;2024-02-21T09:14:01;12.10;99.90
7958;DHT22;4024;52.172;5.378;2024-02-21T09:16:32;12.10;99.90
7958;DHT22;4024;52.172;5.378;2024-02-21T09:18:58;12.10;99.90
7958;DHT22;4024;52.172;5.378;2024-02-21T09:21:23;12.10;99.90
7958;DHT22;4024;52.172;5.378;2024-02-21T09:23:49;12.10;99.90
7958;DHT22;4024;52.172;5.378;2024-02-21T09:26:14;12.10;99.90
7958;DHT22;4024;52.172;5.378;2024-02-21T09:28:42;12.20;99.90
7958;DHT22;4024;52.172;5.378;2024-02-21T09:31:08;12.20;99.90
7958;DHT22;4024;52.172;5.378;2024-02-21T09:33:34;12.20;99.90
7958;DHT22;4024;52.172;5.378;2024-02-21T09:35:59;12.20;99.90
7958;DHT22;4024;52.172;5.378;2024-02-21T09:38:25;12.20;99.90
7958;DHT22;4024;52.172;5.378;2024-02-21T09:41:08;12.20;99.90
7958;DHT22;4024;52.172;5.378;2024-02-21T09:43:38;12.20;99.90
7958;DHT22;4024;52.172;5.378;2024-02-21T09:46:05;12.30;99.90
7958;DHT22;4024;52.172;5.378;2024-02-21T09:49:10;12.20;99.90
7958;DHT22;4024;52.172;5.378;2024-02-21T09:51:40;12.30;99.90
7958;DHT22;4024;52.172;5.378;2024-02-21T09:54:07;12.40;99.90
7958;DHT22;4024;52.172;5.378;2024-02-21T09:56:33;12.30;99.90
7958;DHT22;4024;52.172;5.378;2024-02-21T09:58:58;12.30;99.90
7958;DHT22;4024;52.172;5.378;2024-02-21T10:01:24;12.30;99.90
7958;DHT22;4024;52.172;5.378;2024-02-21T10:03:50;12.30;99.90
7958;DHT22;4024;52.172;5.378;2024-02-21T10:06:16;12.30;99.90
7958;DHT22;4024;52.172;5.378;2024-02-21T10:08:42;12.40;99.90
7958;DHT22;4024;52.172;5.378;2024-02-21T10:11:07;12.40;99.90
7958;DHT22;4024;52.172;5.378;2024-02-21T10:13:35;12.40;99.90
7958;DHT22;4024;52.172;5.378;2024-02-21T10:16:05;12.40;99.90
7958;DHT22;4024;52.172;5.378;2024-02-21T10:18:31;12.40;99.90
7958;DHT22;4024;52.172;5.378;2024-02-21T10:21:04;12.50;99.90
7958;DHT22;4024;52.172;5.378;2024-02-21T10:23:44;12.40;99.90
7958;DHT22;4024;52.172;5.378;2024-02-21T10:26:10;12.50;99.90
7958;DHT22;4024;52.172;5.378;2024-02-21T10:28:36;12.50;99.90
7958;DHT22;4024;52.172;5.378;2024-02-21T10:31:03;12.50;99.90
7958;DHT22;4024;52.172;5.378;2024-02-21T10:33:29;12.60;99.90
7958;DHT22;4024;52.172;5.378;2024-02-21T10:36:09;12.60;99.90
7958;DHT22;4024;52.172;5.378;2024-02-21T10:38:39;12.60;99.90
7958;DHT22;4024;52.172;5.378;2024-02-21T10:41:10;12.60;99.90
7958;DHT22;4024;52.172;5.378;2024-02-21T10:43:41;12.70;99.90
7958;DHT22;4024;52.172;5.378;2024-02-21T10:46:07;12.70;99.90
7958;DHT22;4024;52.172;5.378;2024-02-21T10:48:44;12.80;99.90
7958;DHT22;4024;52.172;5.378;2024-02-21T10:51:20;12.80;99.90
7958;DHT22;4024;52.172;5.378;2024-02-21T10:56:57;12.90;99.90
7958;DHT22;4024;52.172;5.378;2024-02-21T10:59:24;12.90;99.90
7958;DHT22;4024;52.172;5.378;2024-02-21T11:01:51;12.80;99.90
7958;DHT22;4024;52.172;5.378;2024-02-21T11:04:17;12.90;99.90
7958;DHT22;4024;52.172;5.378;2024-02-21T11:06:44;12.90;99.90
7958;DHT22;4024;52.172;5.378;2024-02-21T11:09:10;13.00;99.90
7958;DHT22;4024;52.172;5.378;2024-02-21T11:11:38;13.00;99.90
7958;DHT22;4024;52.172;5.378;2024-02-21T11:14:26;13.00;99.90
7958;DHT22;4024;52.172;5.378;2024-02-21T11:16:52;13.10;99.90
7958;DHT22;4024;52.172;5.378;2024-02-21T11:19:22;13.20;99.90
7958;DHT22;4024;52.172;5.378;2024-02-21T11:21:49;13.10;99.90
7958;DHT22;4024;52.172;5.378;2024-02-21T11:24:28;13.10;99.90
7958;DHT22;4024;52.172;5.378;2024-02-21T11:26:55;13.10;99.90
7958;DHT22;4024;52.172;5.378;2024-02-21T11:29:24;13.00;99.90
7958;DHT22;4024;52.172;5.378;2024-02-21T11:31:51;13.00;99.90
7958;DHT22;4024;52.172;5.378;2024-02-21T11:34:18;13.00;99.90
7958;DHT22;4024;52.172;5.378;2024-02-21T11:36:51;13.00;99.90
7958;DHT22;4024;52.172;5.378;2024-02-21T11:39:24;12.90;99.90
7958;DHT22;4024;52.172;5.378;2024-02-21T11:42:06;12.90;99.90
7958;DHT22;4024;52.172;5.378;2024-02-21T11:44:36;12.90;99.90
7958;DHT22;4024;52.172;5.378;2024-02-21T11:47:08;12.90;99.90
7958;DHT22;4024;52.172;5.378;2024-02-21T11:49:47;12.80;99.90
7958;DHT22;4024;52.172;5.378;2024-02-21T11:52:16;12.80;99.90
7958;DHT22;4024;52.172;5.378;2024-02-21T11:54:44;12.80;99.90
7958;DHT22;4024;52.172;5.378;2024-02-21T11:57:10;12.90;99.90
7958;DHT22;4024;52.172;5.378;2024-02-21T11:59:40;12.80;99.90
7958;DHT22;4024;52.172;5.378;2024-02-21T12:02:06;12.70;99.90
7958;DHT22;4024;52.172;5.378;2024-02-21T12:04:33;12.80;99.90
7958;DHT22;4024;52.172;5.378;2024-02-21T12:06:59;12.70;99.90
7958;DHT22;4024;52.172;5.378;2024-02-21T12:09:26;12.80;99.90
7958;DHT22;4024;52.172;5.378;2024-02-21T12:12:19;12.80;99.90
7958;DHT22;4024;52.172;5.378;2024-02-21T12:14:45;12.90;99.90
7958;DHT22;4024;52.172;5.378;2024-02-21T12:17:11;12.90;99.90
7958;DHT22;4024;52.172;5.378;2024-02-21T12:19:36;12.90;99.90
7958;DHT22;4024;52.172;5.378;2024-02-21T12:22:02;13.00;99.90
7958;DHT22;4024;52.172;5.378;2024-02-21T12:24:32;13.00;99.90
7958;DHT22;4024;52.172;5.378;2024-02-21T12:26:57;13.00;99.90
7958;DHT22;4024;52.172;5.378;2024-02-21T12:29:28;13.10;99.90
7958;DHT22;4024;52.172;5.378;2024-02-21T12:31:55;13.10;99.90
7958;DHT22;4024;52.172;5.378;2024-02-21T12:34:21;13.10;99.90
7958;DHT22;4024;52.172;5.378;2024-02-21T12:36:48;13.10;99.90
7958;DHT22;4024;52.172;5.378;2024-02-21T12:39:14;13.20;99.90
7958;DHT22;4024;52.172;5.378;2024-02-21T12:41:40;13.20;99.90
7958;DHT22;4024;52.172;5.378;2024-02-21T12:44:09;13.20;99.90
7958;DHT22;4024;52.172;5.378;2024-02-21T12:46:37;13.20;99.90
7958;DHT22;4024;52.172;5.378;2024-02-21T12:49:04;13.30;99.90
7958;DHT22;4024;52.172;5.378;2024-02-21T12:51:34;13.20;99.90
7958;DHT22;4024;52.172;5.378;2024-02-21T12:53:59;13.40;99.90
7958;DHT22;4024;52.172;5.378;2024-02-21T12:56:26;13.40;99.90
7958;DHT22;4024;52.172;5.378;2024-02-21T12:58:53;13.30;99.90
7958;DHT22;4024;52.172;5.378;2024-02-21T13:01:18;13.40;99.90
7958;DHT22;4024;52.172;5.378;2024-02-21T13:03:44;13.40;99.90
7958;DHT22;4024;52.172;5.378;2024-02-21T13:06:09;13.40;99.90
7958;DHT22;4024;52.172;5.378;2024-02-21T13:08:36;13.50;99.90
7958;DHT22;4024;52.172;5.378;2024-02-21T13:11:03;13.50;99.90
7958;DHT22;4024;52.172;5.378;2024-02-21T13:13:28;13.50;99.90
7958;DHT22;4024;52.172;5.378;2024-02-21T13:15:54;13.50;99.90
7958;DHT22;4024;52.172;5.378;2024-02-21T13:18:19;13.60;99.90
7958;DHT22;4024;52.172;5.378;2024-02-21T13:20:45;13.60;99.90
7958;DHT22;4024;52.172;5.378;2024-02-21T13:23:11;13.60;99.90
7958;DHT22;4024;52.172;5.378;2024-02-21T13:25:36;13.60;99.90
7958;DHT22;4024;52.172;5.378;2024-02-21T13:28:02;13.60;99.90
7958;DHT22;4024;52.172;5.378;2024-02-21T13:30:28;13.60;99.90
7958;DHT22;4024;52.172;5.378;2024-02-21T13:32:54;13.60;99.90
7958;DHT22;4024;52.172;5.378;2024-02-21T13:35:20;13.60;99.90
7958;DHT22;4024;52.172;5.378;2024-02-21T13:37:46;13.50;99.90
7958;DHT22;4024;52.172;5.378;2024-02-21T13:40:12;13.60;99.90
7958;DHT22;4024;52.172;5.378;2024-02-21T13:42:40;13.50;99.90
7958;DHT22;4024;52.172;5.378;2024-02-21T13:45:06;13.60;99.90
7958;DHT22;4024;52.172;5.378;2024-02-21T13:47:33;13.50;99.90
7958;DHT22;4024;52.172;5.378;2024-02-21T13:49:59;13.50;99.90
7958;DHT22;4024;52.172;5.378;2024-02-21T13:52:25;13.50;99.90
7958;DHT22;4024;52.172;5.378;2024-02-21T13:54:53;13.50;99.90
7958;DHT22;4024;52.172;5.378;2024-02-21T13:57:19;13.50;99.90
7958;DHT22;4024;52.172;5.378;2024-02-21T13:59:44;13.50;99.90
7958;DHT22;4024;52.172;5.378;2024-02-21T14:02:10;13.50;99.90
7958;DHT22;4024;52.172;5.378;2024-02-21T14:04:36;13.50;99.90
7958;DHT22;4024;52.172;5.378;2024-02-21T14:07:02;13.50;99.90
7958;DHT22;4024;52.172;5.378;2024-02-21T14:09:28;13.50;99.90
7958;DHT22;4024;52.172;5.378;2024-02-21T14:11:58;13.40;99.90
7958;DHT22;4024;52.172;5.378;2024-02-21T14:14:24;13.50;99.90
7958;DHT22;4024;52.172;5.378;2024-02-21T14:16:49;13.50;99.90
7958;DHT22;4024;52.172;5.378;2024-02-21T14:19:15;13.50;99.90
7958;DHT22;4024;52.172;5.378;2024-02-21T14:21:41;13.50;99.90
7958;DHT22;4024;52.172;5.378;2024-02-21T14:24:07;13.40;99.90
7958;DHT22;4024;52.172;5.378;2024-02-21T14:26:33;13.40;99.90
7958;DHT22;4024;52.172;5.378;2024-02-21T14:28:59;13.40;99.90
7958;DHT22;4024;52.172;5.378;2024-02-21T14:31:25;13.40;99.90
7958;DHT22;4024;52.172;5.378;2024-02-21T14:33:51;13.40;99.90
7958;DHT22;4024;52.172;5.378;2024-02-21T14:36:16;13.40;99.90
7958;DHT22;4024;52.172;5.378;2024-02-21T14:38:42;13.40;99.90
7958;DHT22;4024;52.172;5.378;2024-02-21T14:41:09;13.40;99.90
7958;DHT22;4024;52.172;5.378;2024-02-21T14:43:37;13.40;99.90
7958;DHT22;4024;52.172;5.378;2024-02-21T14:46:03;13.40;99.90
7958;DHT22;4024;52.172;5.378;2024-02-21T14:48:30;13.40;99.90
7958;DHT22;4024;52.172;5.378;2024-02-21T14:50:57;13.40;99.90
7958;DHT22;4024;52.172;5.378;2024-02-21T14:53:23;13.40;99.90
7958;DHT22;4024;52.172;5.378;2024-02-21T14:55:48;13.30;99.90
7958;DHT22;4024;52.172;5.378;2024-02-21T14:58:15;13.30;99.90
7958;DHT22;4024;52.172;5.378;2024-02-21T15:00:42;13.20;99.90
7958;DHT22;4024;52.172;5.378;2024-02-21T15:03:08;13.30;99.90
7958;DHT22;4024;52.172;5.378;2024-02-21T15:05:34;13.30;99.90
7958;DHT22;4024;52.172;5.378;2024-02-21T15:07:59;13.20;99.90
7958;DHT22;4024;52.172;5.378;2024-02-21T15:10:25;13.20;99.90
7958;DHT22;4024;52.172;5.378;2024-02-21T15:12:51;13.10;99.90
7958;DHT22;4024;52.172;5.378;2024-02-21T15:15:17;13.10;99.90
7958;DHT22;4024;52.172;5.378;2024-02-21T15:17:43;13.10;99.90
7958;DHT22;4024;52.172;5.378;2024-02-21T15:20:08;13.00;99.90
7958;DHT22;4024;52.172;5.378;2024-02-21T15:22:35;13.00;99.90
7958;DHT22;4024;52.172;5.378;2024-02-21T15:25:01;12.90;99.90
7958;DHT22;4024;52.172;5.378;2024-02-21T15:27:27;12.90;99.90
7958;DHT22;4024;52.172;5.378;2024-02-21T15:29:56;12.80;99.90
7958;DHT22;4024;52.172;5.378;2024-02-21T15:32:23;12.80;99.90
7958;DHT22;4024;52.172;5.378;2024-02-21T15:34:48;12.80;99.90
7958;DHT22;4024;52.172;5.378;2024-02-21T15:37:14;12.60;99.90
7958;DHT22;4024;52.172;5.378;2024-02-21T15:39:42;12.60;99.90
7958;DHT22;4024;52.172;5.378;2024-02-21T15:42:11;12.50;99.90
7958;DHT22;4024;52.172;5.378;2024-02-21T15:44:36;12.50;99.90
7958;DHT22;4024;52.172;5.378;2024-02-21T15:47:02;12.50;99.90
7958;DHT22;4024;52.172;5.378;2024-02-21T15:49:28;12.50;99.90
7958;DHT22;4024;52.172;5.378;2024-02-21T15:51:54;12.50;99.90
7958;DHT22;4024;52.172;5.378;2024-02-21T15:54:20;12.40;99.90
7958;DHT22;4024;52.172;5.378;2024-02-21T15:56:45;12.40;99.90
7958;DHT22;4024;52.172;5.378;2024-02-21T15:59:14;12.30;99.90
7958;DHT22;4024;52.172;5.378;2024-02-21T16:01:40;12.30;99.90